Time;durP1;ratioP1;P1;durP2;ratioP2;P2;SDS_P1;SDS_P2;PMS_P1;PMS_P2;Temp;Humidity;BMP_temperature;BMP_pressure;BME280_temperature;BME280_humidity;BME280_pressure;Samples;Min_cycle;Max_cycle;Signal;HPM_P1;HPM_P2
2022/10/05 00:02:20;;;;;;;;;;;;;;;21.62;61.56;101470.44;5017080;28;2890;-59
2022/10/05 00:04:54;;;;;;;;;;;;;;;21.63;61.42;101465.44;5017482;28;2498;-59
2022/10/05 00:07:20;;;;;;;;;;;;;;;21.62;61.30;101463.94;5011530;28;2942;-59
2022/10/05 00:09:57;;;;;;;;;;;;;;;21.59;61.44;101460.22;5017163;28;2746;-59
2022/10/05 00:12:23;;;;;;;;;;;;;;;21.60;61.53;101446.53;5017849;28;2445;-59
2022/10/05 00:14:50;;;;;;;;;;;;;;;21.58;61.76;101447.19;5016411;28;3431;-60
2022/10/05 00:17:17;;;;;;;;;;;;;;;21.58;61.13;101455.84;5016415;28;2939;-59
2022/10/05 00:19:45;;;;;;;;;;;;;;;21.58;61.35;101464.50;5017288;28;2108;-59
2022/10/05 00:22:15;;;;;;;;;;;;;;;21.56;61.38;101458.63;5014587;28;2672;-59
2022/10/05 00:24:42;;;;;;;;;;;;;;;21.54;61.86;101464.28;5015680;28;2840;-59
2022/10/05 00:27:11;;;;;;;;;;;;;;;21.56;61.32;101458.63;5009306;28;2963;-60
2022/10/05 00:29:38;;;;;;;;;;;;;;;21.54;61.22;101462.13;5010355;28;3082;-59
2022/10/05 00:32:04;;;;;;;;;;;;;;;21.55;61.60;101460.00;5012738;28;2820;-59
2022/10/05 00:34:33;;;;;;;;;;;;;;;21.53;61.81;101454.13;5018050;28;2711;-60
2022/10/05 00:36:59;;;;;;;;;;;;;;;21.53;61.63;101454.13;5011094;28;2952;-60
2022/10/05 00:39:26;;;;;;;;;;;;;;;21.54;61.73;101458.53;5011725;28;2920;-59
2022/10/05 00:42:01;;;;;;;;;;;;;;;21.53;61.77;101448.38;5012728;28;2905;-59
2022/10/05 00:44:36;;;;;;;;;;;;;;;21.52;61.84;101441.13;5018003;28;2883;-60
2022/10/05 00:47:05;;;;;;;;;;;;;;;21.52;61.58;101432.47;5013380;28;3176;-60
2022/10/05 00:49:50;;;;;;;;;;;;;;;21.51;61.80;101433.88;5011148;28;3097;-60
2022/10/05 00:52:23;;;;;;;;;;;;;;;21.48;61.43;101432.25;5011166;28;2768;-59
2022/10/05 00:54:53;;;;;;;;;;;;;;;21.49;61.64;101428.75;5014240;28;3012;-59
2022/10/05 00:57:38;;;;;;;;;;;;;;;21.49;61.58;101428.00;5014661;28;2938;-59
2022/10/05 01:00:04;;;;;;;;;;;;;;;21.49;61.54;101428.00;5015042;28;3098;-59
2022/10/05 01:02:49;;;;;;;;;;;;;;;21.47;61.56;101419.25;5008627;28;3155;-59
2022/10/05 01:05:23;;;;;;;;;;;;;;;21.47;61.31;101419.25;5016471;28;3115;-59
2022/10/05 01:07:51;;;;;;;;;;;;;;;21.46;61.76;101420.63;5011109;28;2943;-59
2022/10/05 01:10:29;;;;;;;;;;;;;;;21.47;61.46;101422.13;5018006;28;2614;-59
2022/10/05 01:13:14;;;;;;;;;;;;;;;21.45;61.81;101422.78;5033964;28;2894;-59
2022/10/05 01:15:43;;;;;;;;;;;;;;;21.44;61.55;101412.66;5009422;28;3056;-59
2022/10/05 01:18:18;;;;;;;;;;;;;;;21.44;61.89;101406.88;5009570;28;3608;-59
2022/10/05 01:20:51;;;;;;;;;;;;;;;21.45;62.02;101398.97;5008543;28;2551;-59
2022/10/05 01:23:39;;;;;;;;;;;;;;;21.45;61.54;101390.34;5026951;28;2822;-59
2022/10/05 01:26:06;;;;;;;;;;;;;;;21.43;61.60;101404.66;5008910;28;3087;-59
2022/10/05 01:28:34;;;;;;;;;;;;;;;21.44;61.70;101403.25;5009737;28;2639;-58
2022/10/05 01:31:06;;;;;;;;;;;;;;;21.45;61.64;101407.63;5024675;28;1665;-59
2022/10/05 01:33:36;;;;;;;;;;;;;;;21.43;61.78;101399.63;4999843;28;3145;-59
2022/10/05 01:36:06;;;;;;;;;;;;;;;21.42;61.74;101400.28;5002853;28;2573;-59
2022/10/05 01:38:48;;;;;;;;;;;;;;;21.42;61.71;101391.63;5020872;28;2869;-59
2022/10/05 01:41:21;;;;;;;;;;;;;;;21.42;61.55;101411.81;4999351;28;2870;-59
2022/10/05 01:43:53;;;;;;;;;;;;;;;21.42;61.50;101391.63;5009122;28;2690;-59
2022/10/05 01:46:24;;;;;;;;;;;;;;;21.42;61.69;101395.25;5025238;28;2858;-59
2022/10/05 01:49:10;;;;;;;;;;;;;;;21.42;61.65;101397.41;5011745;28;1805;-59
2022/10/05 01:51:49;;;;;;;;;;;;;;;21.41;61.66;101402.41;5007082;28;3670;-59
2022/10/05 01:54:31;;;;;;;;;;;;;;;21.39;61.90;101404.41;5012311;28;3177;-59
2022/10/05 01:57:00;;;;;;;;;;;;;;;21.40;61.57;101400.16;5022435;28;2760;-59
2022/10/05 01:59:39;;;;;;;;;;;;;;;21.39;61.82;101415.94;5010935;28;1939;-59
2022/10/05 02:02:06;;;;;;;;;;;;;;;21.38;61.81;101420.94;5014170;28;2872;-59
2022/10/05 02:04:37;;;;;;;;;;;;;;;21.38;61.63;101414.44;5025512;28;2788;-59
2022/10/05 02:07:44;;;;;;;;;;;;;;;21.36;61.73;101417.22;5016007;28;3226;-58
2022/10/05 02:10:17;;;;;;;;;;;;;;;21.38;61.50;101420.22;5007529;28;2856;-58
2022/10/05 02:12:44;;;;;;;;;;;;;;;21.37;61.68;101416.56;5018579;28;2997;-59
2022/10/05 02:15:14;;;;;;;;;;;;;;;21.37;61.56;101421.56;5007541;28;2921;-59
2022/10/05 02:17:42;;;;;;;;;;;;;;;21.36;61.91;101423.72;5010320;28;3018;-59
2022/10/05 02:20:09;;;;;;;;;;;;;;;21.36;61.72;101423.72;5020723;28;3192;-59
2022/10/05 02:22:46;;;;;;;;;;;;;;;21.33;61.81;101414.22;5013535;28;2791;-59
2022/10/05 02:25:13;;;;;;;;;;;;;;;21.34;61.80;101412.84;5007311;28;3145;-59
2022/10/05 02:27:44;;;;;;;;;;;;;;;21.34;61.80;101420.72;5013025;28;2854;-59
2022/10/05 02:30:10;;;;;;;;;;;;;;;21.31;62.17;101414.13;5024618;28;2826;-59
2022/10/05 02:32:51;;;;;;;;;;;;;;;21.33;61.65;101425.75;5018973;28;2532;-59
2022/10/05 02:35:17;;;;;;;;;;;;;;;21.34;61.64;101427.22;5012177;28;3102;-59
2022/10/05 02:37:47;;;;;;;;;;;;;;;21.33;61.78;101420.00;5020179;28;2840;-59
2022/10/05 02:40:17;;;;;;;;;;;;;;;21.39;61.44;101421.69;5014192;28;3506;-59
2022/10/05 02:42:56;;;;;;;;;;;;;;;21.42;61.54;101420.44;5014939;28;2769;-59
2022/10/05 02:45:41;;;;;;;;;;;;;;;21.40;61.76;101414.56;5041314;28;3054;-59
2022/10/05 02:48:10;;;;;;;;;;;;;;;21.43;61.47;101421.94;4995589;28;2929;-59
2022/10/05 02:50:40;;;;;;;;;;;;;;;21.47;61.26;101413.50;5017406;28;2934;-59
2022/10/05 02:53:13;;;;;;;;;;;;;;;21.47;61.50;101404.84;5002180;28;2710;-59
2022/10/05 02:55:48;;;;;;;;;;;;;;;21.48;61.52;101406.34;5022209;28;2567;-59
2022/10/05 02:58:17;;;;;;;;;;;;;;;21.49;61.33;101396.31;5009583;28;2747;-59
2022/10/05 03:00:55;;;;;;;;;;;;;;;21.51;61.19;101399.31;5026696;28;3226;-59
2022/10/05 03:03:22;;;;;;;;;;;;;;;21.50;61.48;101400.66;5019742;28;2984;-59
2022/10/05 03:05:54;;;;;;;;;;;;;;;21.51;61.46;101387.78;5040488;28;2829;-59
2022/10/05 03:08:25;;;;;;;;;;;;;;;21.50;61.40;101400.66;4994204;28;2897;-59
2022/10/05 03:10:52;;;;;;;;;;;;;;;21.51;61.35;101405.06;5009988;28;2947;-59
2022/10/05 03:13:18;;;;;;;;;;;;;;;21.52;61.56;101395.00;5013687;28;3607;-60
2022/10/05 03:15:59;;;;;;;;;;;;;;;21.51;61.25;101387.78;5016617;28;3271;-59
2022/10/05 03:18:39;;;;;;;;;;;;;;;21.50;61.43;101386.28;5015694;28;2936;-59
2022/10/05 03:21:19;;;;;;;;;;;;;;;21.51;61.67;101382.00;5004706;28;2887;-59
2022/10/05 03:24:05;;;;;;;;;;;;;;;21.51;61.42;101376.25;5020778;28;2928;-60
2022/10/05 03:26:38;;;;;;;;;;;;;;;21.49;61.63;101376.16;5016836;28;2528;-60
2022/10/05 03:29:19;;;;;;;;;;;;;;;21.49;61.48;101374.00;5015524;28;3795;-60
2022/10/05 03:32:12;;;;;;;;;;;;;;;21.47;61.63;101368.13;5015922;28;2923;-60
2022/10/05 03:34:51;;;;;;;;;;;;;;;21.51;61.55;101370.47;4991835;28;2734;-60
2022/10/05 03:37:17;;;;;;;;;;;;;;;21.49;61.56;101358.84;5015062;28;3036;-60
2022/10/05 03:39:45;;;;;;;;;;;;;;;21.50;61.60;101363.22;5032034;28;2854;-60
2022/10/05 03:42:21;;;;;;;;;;;;;;;21.46;62.06;101363.00;5002779;28;2998;-60
2022/10/05 03:44:49;;;;;;;;;;;;;;;21.43;62.23;101358.53;5015068;28;3380;-60
2022/10/05 03:47:36;;;;;;;;;;;;;;;21.46;61.87;101357.25;5022950;28;2298;-60
2022/10/05 03:50:18;;;;;;;;;;;;;;;21.46;62.39;101357.25;5014842;28;2886;-60
2022/10/05 03:52:46;;;;;;;;;;;;;;;21.45;62.25;101344.25;5031043;28;2528;-60
2022/10/05 03:55:16;;;;;;;;;;;;;;;21.46;61.83;101343.59;5015693;28;2973;-60
2022/10/05 03:57:42;;;;;;;;;;;;;;;21.41;62.40;101341.88;5016981;28;2917;-59
2022/10/05 04:00:19;;;;;;;;;;;;;;;21.41;62.64;101338.28;4986861;28;3213;-60
2022/10/05 04:02:59;;;;;;;;;;;;;;;21.43;62.27;101338.38;4998434;28;3583;-59
2022/10/05 04:05:28;;;;;;;;;;;;;;;21.47;61.94;101332.81;5015046;28;3117;-59
2022/10/05 04:07:55;;;;;;;;;;;;;;;21.45;62.38;101338.47;5024030;28;1956;-59
2022/10/05 04:10:26;;;;;;;;;;;;;;;21.45;61.95;101339.22;5003598;28;2801;-60
2022/10/05 04:13:02;;;;;;;;;;;;;;;21.47;62.33;101329.94;5013304;28;3299;-61
2022/10/05 04:15:30;;;;;;;;;;;;;;;21.44;62.22;101342.72;5004192;28;2968;-60
2022/10/05 04:17:58;;;;;;;;;;;;;;;21.43;62.18;101347.03;5013208;28;3593;-60
2022/10/05 04:20:29;;;;;;;;;;;;;;;21.45;61.74;101344.25;5017154;28;2954;-60
2022/10/05 04:23:08;;;;;;;;;;;;;;;21.42;62.16;101345.53;5013118;28;2923;-60
2022/10/05 04:25:45;;;;;;;;;;;;;;;21.43;62.24;101338.38;5008436;28;2966;-60
2022/10/05 04:28:15;;;;;;;;;;;;;;;21.45;61.87;101341.34;5023006;28;3168;-59
2022/10/05 04:30:43;;;;;;;;;;;;;;;21.40;62.07;101342.53;4999904;28;2997;-60
2022/10/05 04:33:14;;;;;;;;;;;;;;;21.43;61.46;101330.47;5030557;28;3513;-61
2022/10/05 04:35:55;;;;;;;;;;;;;;;21.41;62.18;101338.28;5013417;28;2942;-60
2022/10/05 04:38:26;;;;;;;;;;;;;;;21.43;61.65;101347.03;5003843;28;2931;-60
2022/10/05 04:41:11;;;;;;;;;;;;;;;21.44;61.64;101354.25;5021262;28;3446;-60
2022/10/05 04:43:53;;;;;;;;;;;;;;;21.42;61.64;101351.31;5013405;28;3017;-60
2022/10/05 04:46:29;;;;;;;;;;;;;;;21.44;61.61;101354.25;5013279;28;3340;-60
2022/10/05 04:49:03;;;;;;;;;;;;;;;21.42;61.66;101351.31;5012980;28;2864;-60
2022/10/05 04:51:51;;;;;;;;;;;;;;;21.43;61.60;101332.63;5018353;28;2886;-60
2022/10/05 04:54:24;;;;;;;;;;;;;;;21.40;61.77;101337.53;5005103;28;3992;-60
2022/10/05 04:56:52;;;;;;;;;;;;;;;21.42;61.42;101343.41;5019659;28;2658;-60
2022/10/05 04:59:37;;;;;;;;;;;;;;;21.41;61.84;101338.28;5011377;28;2821;-60
2022/10/05 05:02:19;;;;;;;;;;;;;;;21.44;61.46;101325.44;5011138;28;2916;-60
2022/10/05 05:04:53;;;;;;;;;;;;;;;21.43;62.19;101329.72;5007652;28;3398;-59
2022/10/05 05:07:37;;;;;;;;;;;;;;;21.48;61.69;101331.41;4997354;28;3014;-58
2022/10/05 05:10:14;;;;;;;;;;;;;;;21.49;62.09;101330.03;5018252;28;3251;-58
2022/10/05 05:12:43;;;;;;;;;;;;;;;21.52;61.94;101343.16;4994491;28;2901;-58
2022/10/05 05:15:13;;;;;;;;;;;;;;;21.53;62.00;101341.75;5007113;28;2902;-58
2022/10/05 05:18:01;;;;;;;;;;;;;;;21.58;61.70;101340.56;5025755;28;2950;-48
2022/10/05 05:20:48;;;;;;;;;;;;;;;21.62;61.79;101346.50;5037101;28;3270;-53
2022/10/05 05:23:33;;;;;;;;;;;;;;;21.59;62.57;101341.31;5010668;28;3244;-56
2022/10/05 05:29:35;;;;;;;;;;;;;;;21.52;63.48;101332.34;5010006;28;3570;-55
2022/10/05 05:32:17;;;;;;;;;;;;;;;21.51;63.54;101318.63;5015640;28;1902;-56
2022/10/05 05:34:48;;;;;;;;;;;;;;;21.52;63.32;101314.34;5017565;28;1743;-52
2022/10/05 05:37:18;;;;;;;;;;;;;;;21.53;62.83;101318.69;5009984;28;3440;-56
2022/10/05 05:40:03;;;;;;;;;;;;;;;21.50;64.03;101311.34;5011350;28;1738;-56
2022/10/05 05:42:30;;;;;;;;;;;;;;;21.51;63.67;101321.50;5013731;28;1972;-55
2022/10/05 05:44:58;;;;;;;;;;;;;;;21.49;63.94;101313.50;5010628;28;1929;-55
2022/10/05 05:47:28;;;;;;;;;;;;;;;21.50;63.94;101317.13;5011667;28;1904;-56
2022/10/05 05:49:57;;;;;;;;;;;;;;;21.53;63.79;101327.34;5028120;28;3323;-55
2022/10/05 05:52:44;;;;;;;;;;;;;;;21.49;64.04;101322.13;5017482;28;3481;-55
2022/10/05 05:55:13;;;;;;;;;;;;;;;21.47;64.25;101332.81;5012802;28;1650;-55
2022/10/05 05:57:40;;;;;;;;;;;;;;;21.43;64.31;101318.22;5004196;28;3868;-56
2022/10/05 06:00:13;;;;;;;;;;;;;;;21.44;64.09;101319.69;5003417;28;3375;-55
2022/10/05 06:02:46;;;;;;;;;;;;;;;21.45;64.45;101321.94;5021375;28;1914;-56
2022/10/05 06:05:21;;;;;;;;;;;;;;;21.43;64.38;101330.47;5006865;28;3679;-57
2022/10/05 06:07:48;;;;;;;;;;;;;;;21.47;64.04;101327.06;5033289;28;1625;-56
2022/10/05 06:10:31;;;;;;;;;;;;;;;21.44;64.27;101331.22;5010198;28;3258;-56
2022/10/05 06:13:10;;;;;;;;;;;;;;;21.45;64.29;101321.94;5017531;28;3284;-56
2022/10/05 06:15:38;;;;;;;;;;;;;;;21.41;64.34;101315.97;5012921;28;1673;-55
2022/10/05 06:18:15;;;;;;;;;;;;;;;21.39;64.09;101324.47;5026772;28;1740;-55
2022/10/05 06:20:43;;;;;;;;;;;;;;;21.42;64.31;101325.38;5005617;28;1779;-56
2022/10/05 06:23:14;;;;;;;;;;;;;;;21.44;63.92;101331.97;5010535;28;1973;-57
2022/10/05 06:25:53;;;;;;;;;;;;;;;21.42;64.34;101328.25;5008699;28;3593;-55
2022/10/05 06:28:22;;;;;;;;;;;;;;;21.42;64.18;101340.50;5022923;28;3408;-53
2022/10/05 06:30:59;;;;;;;;;;;;;;;21.42;64.02;101334.00;5004213;28;2946;-55
2022/10/05 06:33:48;;;;;;;;;;;;;;;21.44;63.78;101342.72;5020651;28;1849;-54
2022/10/05 06:36:31;;;;;;;;;;;;;;;21.43;64.01;101344.13;5031416;28;1627;-55
2022/10/05 06:39:18;;;;;;;;;;;;;;;21.41;64.35;101338.28;5000802;28;3423;-55
2022/10/05 06:41:48;;;;;;;;;;;;;;;21.43;63.80;101335.50;5014738;28;1702;-55
2022/10/05 06:44:15;;;;;;;;;;;;;;;21.44;63.66;101342.72;5014194;28;1981;-56
2022/10/05 06:46:51;;;;;;;;;;;;;;;21.42;64.15;101339.78;5031652;28;1605;-56
2022/10/05 06:49:48;;;;;;;;;;;;;;;21.42;63.81;101342.66;5020485;28;3523;-56
2022/10/05 06:52:38;;;;;;;;;;;;;;;21.42;63.68;101331.13;5023025;28;3969;-56
2022/10/05 06:55:34;;;;;;;;;;;;;;;21.42;63.63;101339.78;4996014;28;3370;-59
2022/10/05 06:58:03;;;;;;;;;;;;;;;21.41;63.18;101344.03;4994476;28;1852;-55
2022/10/05 07:00:50;;;;;;;;;;;;;;;21.42;63.08;101343.41;5014512;28;3033;-56
2022/10/05 07:03:33;;;;;;;;;;;;;;;21.42;63.21;101345.53;5025071;28;1997;-56
2022/10/05 07:06:09;;;;;;;;;;;;;;;21.41;63.45;101344.78;5023819;28;1781;-57
2022/10/05 07:08:59;;;;;;;;;;;;;;;21.41;63.45;101344.78;5023560;28;3381;-56
2022/10/05 07:11:43;;;;;;;;;;;;;;;21.38;63.92;101343.16;5019005;28;1664;-56
2022/10/05 07:14:17;;;;;;;;;;;;;;;21.41;63.53;101352.69;5031792;28;4057;-53
2022/10/05 07:16:46;;;;;;;;;;;;;;;21.40;63.43;101348.28;5017560;28;3169;-56
2022/10/05 07:19:22;;;;;;;;;;;;;;;21.40;63.37;101342.53;5019781;28;1579;-55
2022/10/05 07:21:51;;;;;;;;;;;;;;;21.42;63.44;101339.78;5024156;28;2406;-56
2022/10/05 07:24:28;;;;;;;;;;;;;;;21.39;63.62;101352.53;5016720;28;1903;-54
2022/10/05 07:27:07;;;;;;;;;;;;;;;21.40;63.63;101345.41;5014465;28;3306;-55
2022/10/05 07:29:49;;;;;;;;;;;;;;;21.42;63.56;101351.31;5021141;28;3633;-56
2022/10/05 07:32:22;;;;;;;;;;;;;;;21.38;63.37;101339.53;5022800;28;3828;-55
2022/10/05 07:34:52;;;;;;;;;;;;;;;21.38;63.58;101348.94;5018334;28;1693;-52
2022/10/05 07:40:14;;;;;;;;;;;;;;;21.39;63.68;101366.94;5015170;28;3560;-56
2022/10/05 07:42:43;;;;;;;;;;;;;;;21.39;63.65;101359.03;5008045;28;1969;-57
2022/10/05 07:45:29;;;;;;;;;;;;;;;21.38;63.58;101345.31;5013128;28;3609;-53
2022/10/05 07:47:58;;;;;;;;;;;;;;;21.38;63.27;101346.03;5018804;28;1545;-56
2022/10/05 07:50:30;;;;;;;;;;;;;;;21.39;63.25;101355.44;5025021;28;1710;-56
2022/10/05 07:53:01;;;;;;;;;;;;;;;21.40;63.26;101360.59;5049747;28;1838;-55
2022/10/05 07:55:39;;;;;;;;;;;;;;;21.38;63.44;101374.84;5018053;28;1687;-56
2022/10/05 07:58:11;;;;;;;;;;;;;;;21.39;63.41;101379.22;5005618;28;3520;-54
2022/10/05 08:00:59;;;;;;;;;;;;;;;21.39;63.43;101366.94;5006794;28;1601;-54
2022/10/05 08:03:28;;;;;;;;;;;;;;;21.37;63.58;101356.06;5023552;28;1918;-55
2022/10/05 08:05:55;;;;;;;;;;;;;;;21.40;63.20;101348.28;5033115;28;1560;-56
2022/10/05 08:08:27;;;;;;;;;;;;;;;21.38;63.67;101339.53;5013691;28;1717;-55
2022/10/05 08:10:55;;;;;;;;;;;;;;;21.38;63.35;101340.28;5047172;28;1549;-54
2022/10/05 08:13:29;;;;;;;;;;;;;;;21.37;63.47;101333.00;5023776;28;3305;-55
2022/10/05 08:16:00;;;;;;;;;;;;;;;21.37;63.41;101332.28;5019144;28;1590;-55
2022/10/05 08:18:35;;;;;;;;;;;;;;;21.37;63.47;101335.16;5011743;28;3564;-55
2022/10/05 08:21:01;;;;;;;;;;;;;;;21.38;63.53;101328.03;5008799;28;3125;-54
2022/10/05 08:23:31;;;;;;;;;;;;;;;21.40;63.10;101331.00;5031133;28;2489;-58
2022/10/05 08:26:04;;;;;;;;;;;;;;;21.38;63.36;101328.03;5013772;28;3430;-58
2022/10/05 08:28:35;;;;;;;;;;;;;;;21.37;63.33;101326.50;5033900;28;2969;-57
2022/10/05 08:31:04;;;;;;;;;;;;;;;21.42;62.94;101323.22;5028386;28;1695;-57
2022/10/05 08:33:33;;;;;;;;;;;;;;;21.40;63.31;101311.59;5018064;28;3233;-56
2022/10/05 08:36:02;;;;;;;;;;;;;;;21.33;63.24;101310.53;5027301;28;3461;-57
2022/10/05 08:38:30;;;;;;;;;;;;;;;21.41;63.24;101315.97;5027017;28;3549;-57
2022/10/05 08:40:59;;;;;;;;;;;;;;;21.38;63.18;101310.72;5032272;28;1709;-57
2022/10/05 08:43:44;;;;;;;;;;;;;;;21.40;63.21;101302.97;5016124;28;3600;-56
2022/10/05 08:46:23;;;;;;;;;;;;;;;21.42;63.14;101308.09;5016834;28;2630;-54
2022/10/05 08:48:56;;;;;;;;;;;;;;;21.38;62.98;101293.44;5022736;28;2355;-56
2022/10/05 08:51:29;;;;;;;;;;;;;;;21.37;63.04;101292.69;5016066;28;1795;-56
2022/10/05 08:54:01;;;;;;;;;;;;;;;21.37;63.04;101297.69;4998725;28;4031;-56
2022/10/05 08:56:29;;;;;;;;;;;;;;;21.40;62.96;101290.66;5022096;28;3760;-57
2022/10/05 08:58:59;;;;;;;;;;;;;;;21.39;63.21;101286.28;5011736;28;3675;-55
2022/10/05 09:01:44;;;;;;;;;;;;;;;21.42;63.08;101285.78;5014780;28;3639;-55
2022/10/05 09:04:15;;;;;;;;;;;;;;;21.38;63.14;101288.44;5017670;28;1973;-57
2022/10/05 09:06:55;;;;;;;;;;;;;;;21.37;62.98;101286.91;5012487;28;2986;-56
2022/10/05 09:09:25;;;;;;;;;;;;;;;21.37;62.97;101280.41;5016141;28;1713;-57
2022/10/05 09:12:13;;;;;;;;;;;;;;;21.39;62.95;101284.13;5015745;28;3122;-56
2022/10/05 09:14:52;;;;;;;;;;;;;;;21.38;63.10;101293.44;5028564;28;3354;-57
2022/10/05 09:17:57;;;;;;;;;;;;;;;21.38;62.97;101281.91;5026274;28;3296;-57
2022/10/05 09:20:29;;;;;;;;;;;;;;;21.43;62.83;101289.41;5016986;28;1580;-56
2022/10/05 09:23:01;;;;;;;;;;;;;;;21.42;63.07;101293.69;5030168;28;2168;-55
2022/10/05 09:25:42;;;;;;;;;;;;;;;21.40;63.04;101290.66;5016272;28;1711;-56
2022/10/05 09:28:21;;;;;;;;;;;;;;;21.37;63.07;101280.41;5026996;28;2923;-56
2022/10/05 09:30:57;;;;;;;;;;;;;;;21.36;63.05;101282.56;5014938;28;2875;-56
2022/10/05 09:33:43;;;;;;;;;;;;;;;21.37;62.91;101271.78;5005643;28;3714;-52
2022/10/05 09:36:12;;;;;;;;;;;;;;;21.37;63.14;101271.78;5008535;28;3743;-58
2022/10/05 09:38:56;;;;;;;;;;;;;;;21.37;62.99;101271.78;5009182;28;2997;-58
2022/10/05 09:41:28;;;;;;;;;;;;;;;21.34;62.91;101265.91;5012995;28;3579;-55
2022/10/05 09:44:13;;;;;;;;;;;;;;;21.36;62.88;101268.16;5044125;28;2909;-56
2022/10/05 09:46:46;;;;;;;;;;;;;;;21.38;62.83;101264.63;5009646;28;2913;-54
2022/10/05 09:49:27;;;;;;;;;;;;;;;21.37;62.89;101263.13;5030104;28;3040;-57
2022/10/05 09:52:12;;;;;;;;;;;;;;;21.41;62.56;101260.47;5015544;28;2730;-57
2022/10/05 09:54:44;;;;;;;;;;;;;;;21.41;62.87;101260.47;5011744;28;3027;-53
2022/10/05 09:57:16;;;;;;;;;;;;;;;21.39;62.79;101252.44;5008727;28;3891;-57
2022/10/05 09:59:51;;;;;;;;;;;;;;;21.44;62.53;101256.31;5040894;28;3515;-56
2022/10/05 10:02:19;;;;;;;;;;;;;;;21.46;62.50;101247.75;5020811;28;2948;-58
2022/10/05 10:05:04;;;;;;;;;;;;;;;21.46;62.31;101242.00;5015384;28;2928;-57
2022/10/05 10:07:49;;;;;;;;;;;;;;;21.47;62.26;101247.13;5016001;28;3145;-58
2022/10/05 10:10:18;;;;;;;;;;;;;;;21.47;61.93;101238.47;5015375;28;1613;-58
2022/10/05 10:12:49;;;;;;;;;;;;;;;21.49;61.98;101229.19;5015775;28;1585;-57
2022/10/05 10:15:34;;;;;;;;;;;;;;;21.49;61.80;101240.72;5011743;28;3610;-65
2022/10/05 10:18:10;;;;;;;;;;;;;;;21.50;62.00;101247.97;5014163;28;1712;-58
2022/10/05 10:20:40;;;;;;;;;;;;;;;21.45;62.40;101252.03;5011591;28;1673;-59
2022/10/05 10:23:19;;;;;;;;;;;;;;;21.45;62.27;101252.03;5013696;28;1913;-57
2022/10/05 10:26:01;;;;;;;;;;;;;;;21.46;62.67;101262.94;5016009;28;1674;-56
2022/10/05 10:28:34;;;;;;;;;;;;;;;21.45;62.38;101264.31;5013220;28;1579;-57
2022/10/05 10:31:08;;;;;;;;;;;;;;;21.45;62.74;101269.31;5028364;28;1642;-56
2022/10/05 10:33:39;;;;;;;;;;;;;;;21.46;62.64;101265.03;5029110;28;3497;-56
2022/10/05 10:36:16;;;;;;;;;;;;;;;21.46;62.71;101253.53;5014600;28;1695;-57
2022/10/05 10:38:57;;;;;;;;;;;;;;;21.45;62.40;101257.81;5021435;28;1572;-57
2022/10/05 10:41:34;;;;;;;;;;;;;;;21.46;62.52;101267.94;5011990;28;1639;-58
2022/10/05 10:44:19;;;;;;;;;;;;;;;21.46;62.62;101267.94;5025331;28;1938;-57
2022/10/05 10:47:04;;;;;;;;;;;;;;;21.45;62.35;101264.31;5011021;28;1568;-56
2022/10/05 10:49:48;;;;;;;;;;;;;;;21.46;62.72;101262.16;5014484;28;3288;-57
2022/10/05 10:52:31;;;;;;;;;;;;;;;21.46;62.32;101260.06;5014476;28;1580;-57
2022/10/05 10:55:03;;;;;;;;;;;;;;;21.47;62.63;101260.78;5028695;28;1751;-56
2022/10/05 10:57:42;;;;;;;;;;;;;;;21.47;62.62;101250.00;5013409;28;1822;-57
2022/10/05 11:00:18;;;;;;;;;;;;;;;21.48;62.39;101250.75;5013994;28;3840;-57
2022/10/05 11:02:45;;;;;;;;;;;;;;;21.48;62.55;101244.97;5029587;28;1613;-56
2022/10/05 11:05:26;;;;;;;;;;;;;;;21.48;62.61;101247.84;5014470;28;1910;-57
2022/10/05 11:08:08;;;;;;;;;;;;;;;21.50;62.48;101247.97;5009143;28;1572;-56
2022/10/05 11:10:57;;;;;;;;;;;;;;;21.51;62.35;101237.94;5027699;28;1786;-55
2022/10/05 11:13:33;;;;;;;;;;;;;;;21.52;62.00;101239.41;5027054;28;1680;-57
2022/10/05 11:16:18;;;;;;;;;;;;;;;21.52;61.92;101230.78;5044928;28;1561;-55
2022/10/05 11:18:51;;;;;;;;;;;;;;;21.51;61.90;101232.19;5009602;28;3373;-58
2022/10/05 11:21:36;;;;;;;;;;;;;;;21.52;62.02;101225.75;5012644;28;1668;-57
2022/10/05 11:24:17;;;;;;;;;;;;;;;21.53;62.00;101218.59;5015550;28;1938;-57
2022/10/05 11:27:03;;;;;;;;;;;;;;;21.53;62.14;101212.06;5016153;28;3308;-57
2022/10/05 11:29:50;;;;;;;;;;;;;;;21.52;62.05;101211.34;5016851;28;1661;-56
2022/10/05 11:32:32;;;;;;;;;;;;;;;21.53;61.85;101217.84;5015915;28;1597;-56
2022/10/05 11:35:02;;;;;;;;;;;;;;;21.51;61.97;101209.88;5017489;28;1802;-55
2022/10/05 11:37:35;;;;;;;;;;;;;;;21.53;61.96;101212.06;5029744;28;1798;-57
2022/10/05 11:40:20;;;;;;;;;;;;;;;21.53;61.97;101214.97;5016350;28;1604;-56
2022/10/05 11:42:51;;;;;;;;;;;;;;;21.53;62.43;101206.31;5014280;28;3295;-57
2022/10/05 11:45:20;;;;;;;;;;;;;;;21.52;62.32;101210.59;5016039;28;3351;-56
2022/10/05 11:47:59;;;;;;;;;;;;;;;21.51;62.22;101197.59;5011249;28;1665;-56
2022/10/05 11:50:31;;;;;;;;;;;;;;;21.53;62.40;101206.31;5029958;28;1925;-55
2022/10/05 11:53:01;;;;;;;;;;;;;;;21.53;62.33;101192.66;5043938;28;1668;-57
2022/10/05 11:55:33;;;;;;;;;;;;;;;21.55;62.16;101197.75;5027989;28;3228;-56
2022/10/05 11:58:19;;;;;;;;;;;;;;;21.57;62.00;101197.88;5019825;28;1621;-56
2022/10/05 12:00:48;;;;;;;;;;;;;;;21.57;62.04;101182.72;5014813;28;3615;-56
2022/10/05 12:03:27;;;;;;;;;;;;;;;21.55;61.88;101197.75;5015399;28;1910;-55
2022/10/05 12:05:56;;;;;;;;;;;;;;;21.56;61.96;101187.75;5016865;28;1827;-57
2022/10/05 12:08:34;;;;;;;;;;;;;;;21.58;61.93;101195.72;5014638;28;1714;-57
2022/10/05 12:11:21;;;;;;;;;;;;;;;21.62;61.80;101190.88;5014489;28;3320;-56
2022/10/05 12:13:56;;;;;;;;;;;;;;;21.63;61.94;101185.88;5030482;28;1587;-57
2022/10/05 12:16:35;;;;;;;;;;;;;;;21.64;61.98;101184.47;5016707;28;1550;-56
2022/10/05 12:19:17;;;;;;;;;;;;;;;21.66;61.70;101173.78;5049686;28;1594;-57
2022/10/05 12:21:46;;;;;;;;;;;;;;;21.69;61.55;101178.28;5035299;28;1589;-56
2022/10/05 12:24:14;;;;;;;;;;;;;;;21.70;61.90;101176.88;5015129;28;1910;-56
2022/10/05 12:26:46;;;;;;;;;;;;;;;21.69;61.72;101160.22;5031352;28;3613;-56
2022/10/05 12:29:21;;;;;;;;;;;;;;;21.72;61.52;101165.44;5036177;28;1882;-57
2022/10/05 12:31:50;;;;;;;;;;;;;;;21.72;61.83;101168.31;5020070;28;1571;-55
2022/10/05 12:34:35;;;;;;;;;;;;;;;21.71;61.96;101161.03;5016928;28;1712;-56
2022/10/05 12:37:05;;;;;;;;;;;;;;;21.73;61.69;101155.38;5014296;28;1568;-57
2022/10/05 12:39:35;;;;;;;;;;;;;;;21.74;61.66;101145.34;5015750;28;1601;-56
2022/10/05 12:42:06;;;;;;;;;;;;;;;21.75;61.55;101154.72;5029477;28;3795;-56
2022/10/05 12:44:40;;;;;;;;;;;;;;;21.77;61.83;101154.09;5028967;28;3587;-55
2022/10/05 12:47:19;;;;;;;;;;;;;;;21.77;61.78;101156.97;5014716;28;3525;-58
2022/10/05 12:50:00;;;;;;;;;;;;;;;21.77;61.73;101149.06;5029065;28;3603;-56
2022/10/05 12:52:42;;;;;;;;;;;;;;;21.77;61.73;101154.09;5011449;28;1784;-53
2022/10/05 12:55:10;;;;;;;;;;;;;;;21.79;62.03;101154.19;5028918;28;1540;-56
2022/10/05 12:57:46;;;;;;;;;;;;;;;21.80;61.93;101141.25;5021889;28;1719;-57
2022/10/05 13:00:16;;;;;;;;;;;;;;;21.78;62.01;101139.00;5014630;28;1697;-54
2022/10/05 13:02:49;;;;;;;;;;;;;;;21.78;61.94;101141.16;5013515;28;1982;-57
2022/10/05 13:05:22;;;;;;;;;;;;;;;21.78;61.85;101149.81;5013610;28;3608;-56
2022/10/05 13:07:52;;;;;;;;;;;;;;;21.78;61.80;101141.16;5011117;28;1617;-57
2022/10/05 13:10:28;;;;;;;;;;;;;;;21.80;61.72;101147.00;5024677;28;1609;-57
2022/10/05 13:13:13;;;;;;;;;;;;;;;21.77;61.82;101154.09;5013169;28;1569;-55
2022/10/05 13:15:49;;;;;;;;;;;;;;;21.75;61.81;101151.84;5016296;28;1708;-58
2022/10/05 13:18:18;;;;;;;;;;;;;;;21.75;62.00;101146.81;5029783;28;1712;-56
2022/10/05 13:20:46;;;;;;;;;;;;;;;21.75;62.07;101149.72;5014545;28;1748;-56
2022/10/05 13:23:16;;;;;;;;;;;;;;;21.77;62.02;101143.31;5027032;28;3557;-56
2022/10/05 13:25:45;;;;;;;;;;;;;;;21.81;61.82;101143.50;5029949;28;1902;-57
2022/10/05 13:28:14;;;;;;;;;;;;;;;21.82;61.86;101144.97;5027977;28;2573;-56
2022/10/05 13:30:40;;;;;;;;;;;;;;;21.82;61.68;101150.00;5014112;28;3611;-52
2022/10/05 13:33:13;;;;;;;;;;;;;;;21.82;61.61;101139.19;5016978;28;3115;-56
2022/10/05 13:35:45;;;;;;;;;;;;;;;21.84;61.68;101135.66;5009764;28;2799;-60